createdAt,value
2019-03-15T00:01:08.224Z,995.93
2019-03-15T00:06:08.502Z,995.90
2019-03-15T00:11:09.469Z,995.77
2019-03-15T00:16:08.498Z,995.90
2019-03-15T00:21:07.516Z,996.07
2019-03-15T00:26:07.225Z,995.92
2019-03-15T00:31:07.429Z,995.97
2019-03-15T00:36:07.420Z,996.14
2019-03-15T00:41:06.397Z,996.09
2019-03-15T00:46:05.172Z,996.17
2019-03-15T00:51:06.180Z,996.10
2019-03-15T00:56:07.449Z,996.10
2019-03-15T01:01:06.167Z,996.06
2019-03-15T01:06:06.202Z,996.06
2019-03-15T01:11:05.283Z,996.03
2019-03-15T01:16:05.178Z,995.87
2019-03-15T01:21:04.210Z,995.92
2019-03-15T01:26:05.410Z,995.82
2019-03-15T01:31:04.149Z,995.84
2019-03-15T01:36:03.636Z,995.92
2019-03-15T01:41:04.273Z,995.92
2019-03-15T01:46:03.244Z,995.94
2019-03-15T01:51:04.247Z,995.91
2019-03-15T01:56:05.278Z,995.86
2019-03-15T02:01:05.468Z,995.86
2019-03-15T02:06:06.473Z,995.78
2019-03-15T02:11:06.206Z,995.76
2019-03-15T02:16:05.231Z,995.76
2019-03-15T02:21:05.216Z,995.79
2019-03-15T02:26:04.533Z,995.73
2019-03-15T02:31:04.481Z,995.73
2019-03-15T02:36:04.192Z,995.73
2019-03-15T02:41:05.021Z,995.70
2019-03-15T02:46:05.502Z,995.78
2019-03-15T02:51:04.589Z,995.83
2019-03-15T02:56:04.474Z,995.80
2019-03-15T03:01:04.204Z,995.75
2019-03-15T03:06:03.487Z,995.85
2019-03-15T03:11:04.243Z,995.85
2019-03-15T03:16:04.279Z,995.80
2019-03-15T03:21:03.559Z,995.74
2019-03-15T03:26:04.595Z,995.69
2019-03-15T03:31:04.678Z,995.63
2019-03-15T03:36:03.263Z,995.61
2019-03-15T03:41:03.241Z,995.56
2019-03-15T03:46:02.535Z,995.56
2019-03-15T03:51:02.371Z,995.56
2019-03-15T03:56:02.263Z,995.51
2019-03-15T04:01:02.535Z,995.51
2019-03-15T04:06:01.344Z,995.46
2019-03-15T04:11:00.224Z,995.41
2019-03-15T04:16:00.564Z,995.33
2019-03-15T04:21:00.548Z,995.17
2019-03-15T04:25:59.524Z,995.09
2019-03-15T04:30:59.244Z,995.20
2019-03-15T04:36:00.321Z,995.28
2019-03-15T04:41:00.309Z,995.31
2019-03-15T04:46:00.524Z,995.17
2019-03-15T04:50:59.577Z,995.15
2019-03-15T04:55:58.358Z,995.15
2019-03-15T05:00:57.248Z,995.18
2019-03-15T05:06:03.079Z,995.25
2019-03-15T05:10:57.879Z,995.28
2019-03-15T05:15:58.555Z,995.23
2019-03-15T05:20:58.543Z,995.07
2019-03-15T05:25:58.337Z,994.94
2019-03-15T05:30:59.341Z,994.81
2019-03-15T05:35:58.339Z,994.71
2019-03-15T05:40:59.306Z,994.71
2019-03-15T05:45:59.651Z,994.68
2019-03-15T05:50:59.688Z,994.66
2019-03-15T05:55:59.322Z,994.49
2019-03-15T06:00:59.304Z,994.48
2019-03-15T06:05:58.778Z,994.37
2019-03-15T06:10:57.337Z,994.34
2019-03-15T06:15:57.328Z,994.34
2019-03-15T06:20:57.272Z,994.24
2019-03-15T06:25:58.357Z,994.29
2019-03-15T06:30:58.540Z,994.29
2019-03-15T06:35:58.677Z,994.26
2019-03-15T06:40:58.340Z,994.24
2019-03-15T06:45:57.964Z,994.21
2019-03-15T06:50:56.582Z,994.21
2019-03-15T06:55:56.535Z,994.19
2019-03-15T07:00:55.730Z,994.24
2019-03-15T07:05:56.629Z,994.16
2019-03-15T07:10:56.583Z,994.08
2019-03-15T07:15:56.321Z,993.90
2019-03-15T07:20:56.309Z,993.93
2019-03-15T07:25:56.329Z,993.85
2019-03-15T07:30:55.343Z,993.72
2019-03-15T07:35:55.344Z,993.72
2019-03-15T07:40:55.446Z,993.54
2019-03-15T07:45:54.511Z,993.46
2019-03-15T07:50:54.428Z,993.50
2019-03-15T07:55:53.660Z,993.53
2019-03-15T08:00:54.355Z,993.37
2019-03-15T08:05:53.352Z,993.19
2019-03-15T08:10:55.001Z,993.17
2019-03-15T08:15:52.638Z,993.01
2019-03-15T08:20:52.637Z,992.93
2019-03-15T08:25:52.309Z,992.96
2019-03-15T08:30:51.383Z,993.06
2019-03-15T08:35:50.397Z,992.93
2019-03-15T08:40:49.866Z,993.04
2019-03-15T08:45:49.053Z,992.76
2019-03-15T08:50:48.431Z,992.89
2019-03-15T08:55:48.444Z,992.95
2019-03-15T09:00:47.694Z,993.01
2019-03-15T09:05:47.695Z,992.48
2019-03-15T09:10:47.369Z,992.72
2019-03-15T09:15:47.433Z,993.07
2019-03-15T09:20:46.537Z,993.07
2019-03-15T09:25:45.666Z,993.00
2019-03-15T09:30:45.379Z,992.95
2019-03-15T09:35:45.380Z,992.93
2019-03-15T09:40:45.375Z,992.71
2019-03-15T09:45:45.685Z,992.66
2019-03-15T09:50:51.325Z,992.64
2019-03-15T09:55:45.383Z,992.64
2019-03-15T10:00:45.404Z,992.79
2019-03-15T10:05:45.438Z,992.76
2019-03-15T10:10:49.129Z,992.58
2019-03-15T10:15:47.048Z,992.69
2019-03-15T10:20:45.770Z,992.70
2019-03-15T10:25:48.391Z,992.70
2019-03-15T10:30:44.444Z,992.71
2019-03-15T10:35:44.635Z,992.85
2019-03-15T10:40:43.826Z,992.74
2019-03-15T10:45:43.373Z,992.76
2019-03-15T10:50:44.383Z,992.73
2019-03-15T10:55:43.752Z,992.81
2019-03-15T11:00:42.384Z,992.85
2019-03-15T11:05:41.410Z,992.96
2019-03-15T11:10:40.337Z,992.96
2019-03-15T11:15:40.695Z,992.97
2019-03-15T11:20:40.363Z,993.11
2019-03-15T11:25:40.653Z,993.08
2019-03-15T11:30:39.413Z,993.09
2019-03-15T11:35:38.595Z,993.15
2019-03-15T11:40:38.709Z,993.17
2019-03-15T11:45:39.505Z,993.25
2019-03-15T11:50:38.675Z,993.13
2019-03-15T11:55:39.420Z,993.18
2019-03-15T12:00:39.389Z,993.02
2019-03-15T12:10:39.403Z,992.98
2019-03-15T12:15:39.714Z,993.03
2019-03-15T12:20:40.690Z,993.09
2019-03-15T12:25:40.674Z,992.98
2019-03-15T12:30:42.994Z,992.98
2019-03-15T12:35:39.417Z,992.96
2019-03-15T12:45:40.415Z,992.99
2019-03-15T12:50:39.785Z,992.93
2019-03-15T12:55:39.463Z,992.94
2019-03-15T13:00:38.903Z,993.00
2019-03-15T13:05:39.752Z,993.06
2019-03-15T13:10:39.458Z,992.85
2019-03-15T13:15:39.690Z,992.82
2019-03-15T13:20:40.028Z,992.85
2019-03-15T13:25:39.416Z,992.80
2019-03-15T13:30:38.772Z,992.89
2019-03-15T13:35:37.781Z,992.86
2019-03-15T13:40:36.653Z,992.76
2019-03-15T13:45:36.425Z,992.79
2019-03-15T13:50:37.691Z,992.87
2019-03-15T14:00:36.450Z,992.76
2019-03-15T14:05:36.671Z,992.62
2019-03-15T14:10:48.671Z,992.71
2019-03-15T14:15:35.793Z,992.72
2019-03-15T14:20:36.597Z,992.65
2019-03-15T14:25:35.454Z,992.79
2019-03-15T14:30:34.829Z,992.91
2019-03-15T14:35:34.504Z,992.96
2019-03-15T14:40:33.599Z,992.82
2019-03-15T14:45:34.593Z,992.91
2019-03-15T14:50:35.500Z,993.02
2019-03-15T14:55:36.487Z,992.96
2019-03-15T15:00:36.425Z,993.01
2019-03-15T15:05:36.393Z,992.95
2019-03-15T15:10:36.774Z,992.79
2019-03-15T15:15:36.759Z,992.87
2019-03-15T15:20:36.429Z,992.92
2019-03-15T15:25:35.456Z,992.85
2019-03-15T15:30:35.496Z,992.79
2019-03-15T15:35:34.482Z,992.66
2019-03-15T15:40:34.473Z,992.71
2019-03-15T15:45:33.485Z,992.70
2019-03-15T15:50:32.447Z,992.61
2019-03-15T15:55:32.727Z,992.66
2019-03-15T16:00:32.680Z,992.91
2019-03-15T16:05:31.769Z,992.93
2019-03-15T16:10:31.903Z,992.80
2019-03-15T16:15:32.516Z,992.94
2019-03-15T16:20:32.583Z,993.12
2019-03-15T16:25:31.461Z,993.01
2019-03-15T16:30:31.512Z,992.88
2019-03-15T16:35:30.747Z,992.65
2019-03-15T16:40:30.557Z,992.69
2019-03-15T16:45:29.463Z,992.79
2019-03-15T16:50:28.821Z,992.90
2019-03-15T16:55:28.011Z,993.08
2019-03-15T17:00:27.473Z,993.43
2019-03-15T17:05:27.829Z,993.45
2019-03-15T17:10:27.486Z,993.58
2019-03-15T17:15:26.513Z,993.71
2019-03-15T17:20:26.886Z,993.81
2019-03-15T17:25:26.431Z,993.99
2019-03-15T17:30:25.459Z,994.22
2019-03-15T17:35:26.733Z,994.11
2019-03-15T17:40:26.805Z,994.09
2019-03-15T17:45:26.466Z,994.14
2019-03-15T17:50:26.501Z,994.32
2019-03-15T17:55:25.676Z,994.74
2019-03-15T18:00:26.748Z,994.79
2019-03-15T18:05:25.457Z,994.83
2019-03-15T18:10:26.015Z,995.06
2019-03-15T18:15:24.467Z,995.11
2019-03-15T18:20:23.706Z,995.47
2019-03-15T18:25:23.421Z,995.65
2019-03-15T18:30:22.933Z,995.65
2019-03-15T18:35:32.864Z,995.67
2019-03-15T18:40:22.465Z,995.48
2019-03-15T18:45:21.586Z,995.53
2019-03-15T18:50:21.469Z,995.63
2019-03-15T18:55:20.744Z,995.81
2019-03-15T19:00:20.782Z,995.92
2019-03-15T19:05:19.442Z,995.92
2019-03-15T19:10:18.899Z,996.08
2019-03-15T19:15:18.456Z,996.20
2019-03-15T19:20:17.818Z,996.29
2019-03-15T19:25:17.691Z,996.26
2019-03-15T19:30:17.608Z,996.28
2019-03-15T19:35:18.499Z,996.41
2019-03-15T19:40:18.477Z,996.49
2019-03-15T19:45:18.497Z,996.65
2019-03-15T19:50:19.455Z,996.78
2019-03-15T19:55:18.457Z,996.93
2019-03-15T20:00:18.506Z,996.85
2019-03-15T20:05:18.509Z,997.06
2019-03-15T20:10:17.639Z,997.27
2019-03-15T20:15:18.464Z,997.32
2019-03-15T20:20:17.518Z,997.40
2019-03-15T20:25:16.743Z,997.39
2019-03-15T20:30:21.102Z,997.47
2019-03-15T20:35:16.575Z,997.52
2019-03-15T20:40:15.616Z,997.60
2019-03-15T20:45:14.834Z,997.77
2019-03-15T20:50:15.507Z,997.71
2019-03-15T20:55:15.728Z,997.80
2019-03-15T21:00:15.534Z,997.65
2019-03-15T21:05:14.737Z,997.71
2019-03-15T21:10:13.747Z,997.69
2019-03-15T21:15:12.887Z,997.82
2019-03-15T21:20:12.518Z,997.87
2019-03-15T21:25:12.181Z,997.84
2019-03-15T21:30:11.820Z,997.76
2019-03-15T21:35:11.474Z,997.68
2019-03-15T21:40:11.783Z,997.78
2019-03-15T21:45:11.833Z,997.86
2019-03-15T21:50:11.523Z,998.04
2019-03-15T21:55:10.472Z,998.15
2019-03-15T22:00:09.990Z,998.12
2019-03-15T22:05:10.495Z,998.17
2019-03-15T22:10:11.485Z,998.26
2019-03-15T22:15:11.365Z,998.33
2019-03-15T22:20:10.652Z,998.41
2019-03-15T22:25:09.380Z,998.41
2019-03-15T22:30:08.687Z,998.46
2019-03-15T22:35:07.668Z,998.52
2019-03-15T22:40:07.448Z,998.38
2019-03-15T22:45:07.410Z,998.59
2019-03-15T22:50:06.422Z,998.59
2019-03-15T22:55:06.636Z,998.65
2019-03-15T23:00:05.832Z,998.73
2019-03-15T23:05:05.456Z,998.81
2019-03-15T23:10:04.424Z,998.96
2019-03-15T23:15:04.710Z,999.04
2019-03-15T23:20:04.681Z,999.17
2019-03-15T23:25:04.474Z,999.12
2019-03-15T23:30:03.571Z,999.20
2019-03-15T23:35:03.946Z,999.09
2019-03-15T23:40:03.487Z,999.23
2019-03-15T23:45:03.465Z,999.20
2019-03-15T23:50:03.655Z,999.05
2019-03-15T23:55:02.796Z,999.05
